DW4071 Weather Reports


Display with metric or nautical units.
time (UTC)temp
F
wind
direction
speed
MPH
gust
MPH
rain 1hr
in
rain 24hr
in
rain mn
in
humidity
%
barometer
mb
20191020222105 85 135 2.0 3.0 0.00 0.02 0.02 80 1014.5
20191020221606 85 11 4.0 7.0 0.00 0.02 0.02 81 1014.5
20191020221104 85 112 5.0 8.0 0.00 0.02 0.02 80 1014.5
20191020220605 85 225 5.0 8.0 0.00 0.02 0.02 81 1014.5
20191020220104 85 178 4.0 8.0 0.00 0.02 0.02 81 1014.6
20191020215605 85 161 4.0 8.0 0.00 0.02 0.02 81 1014.6
20191020215114 85 202 5.0 9.0 0.00 0.02 0.02 79 1014.3
20191020214604 85 171 6.0 8.0 0.00 0.02 0.02 81 1014.3
20191020214104 86 231 5.0 6.0 0.00 0.02 0.02 78 1014.4
20191020213604 86 74 5.0 8.0 0.00 0.02 0.02 78 1014.5
20191020213104 86 224 3.0 10.0 0.00 0.02 0.02 79 1014.5
20191020212605 86 127 6.0 10.0 0.00 0.02 0.02 78 1014.5
20191020212104 87 117 5.0 10.0 0.00 0.02 0.02 78 1014.5
20191020211606 87 133 5.0 7.0 0.00 0.02 0.02 77 1014.3
20191020211104 87 135 4.0 8.0 0.00 0.02 0.02 78 1014.3
20191020210605 87 117 4.0 8.0 0.00 0.02 0.02 77 1014.3
20191020210105 87 109 5.0 6.0 0.00 0.02 0.02 77 1014.3
20191020205605 88 132 4.0 6.0 0.00 0.02 0.02 75 1014.3
20191020205105 88 202 3.0 9.0 0.00 0.02 0.02 75 1014.3
20191020204604 87 153 3.0 8.0 0.00 0.02 0.02 79 1014.3
20191020204105 87 118 4.0 8.0 0.00 0.02 0.02 77 1014.3
20191020203604 87 209 4.0 9.0 0.00 0.02 0.02 76 1014.3
20191020203105 87 223 3.0 8.0 0.00 0.02 0.02 75 1014.3
20191020202605 87 121 5.0 7.0 0.00 0.02 0.02 76 1014.2
20191020202104 87 128 3.0 7.0 0.00 0.02 0.02 74 1014.2
20191020201605 88 175 5.0 7.0 0.00 0.02 0.02 74 1014.3
20191020201105 87 238 6.0 9.0 0.00 0.02 0.02 74 1014.3
20191020200604 88 178 3.0 7.0 0.00 0.02 0.02 74 1014.3
20191020200106 87 196 4.0 7.0 0.00 0.02 0.02 74 1014.3
20191020195605 87 182 3.0 9.0 0.00 0.02 0.02 74 1014.3
20191020195104 88 197 5.0 7.0 0.00 0.02 0.02 72 1014.3
20191020194605 88 159 5.0 8.0 0.00 0.02 0.02 71 1014.3
20191020194104 88 90 6.0 8.0 0.00 0.02 0.02 70 1014.4
20191020193604 88 214 4.0 7.0 0.00 0.02 0.02 71 1014.7
20191020193104 88 209 6.0 10.0 0.00 0.02 0.02 72 1014.7
20191020192604 89 213 4.0 7.0 0.00 0.02 0.02 72 1014.8
20191020192104 87 157 5.0 7.0 0.00 0.02 0.02 75 1014.8
20191020191606 86 173 6.0 12.0 0.00 0.02 0.02 76 1015.0
20191020191105 87 120 4.0 6.0 0.00 0.02 0.02 74 1015.0
20191020190604 89 202 5.0 7.0 0.00 0.02 0.02 70 1015.0
20191020190105 89 188 7.0 10.0 0.00 0.02 0.02 69 1015.1
20191020185606 86 190 4.0 6.0 0.00 0.02 0.02 73 1015.1
20191020185104 87 199 5.0 6.0 0.00 0.02 0.02 73 1015.2
20191020184605 87 256 3.0 6.0 0.00 0.02 0.02 73 1015.2
20191020184104 87 74 4.0 7.0 0.00 0.02 0.02 72 1015.2
20191020183606 88 171 3.0 6.0 0.00 0.02 0.02 72 1015.3
20191020183105 90 206 5.0 7.0 0.00 0.02 0.02 71 1015.3
20191020182605 88 196 4.0 6.0 0.00 0.02 0.02 73 1015.5
20191020182105 87 215 3.0 7.0 0.00 0.02 0.02 74 1015.5
20191020181605 88 159 5.0 6.0 0.00 0.02 0.02 73 1015.6
20191020181104 89 163 4.0 7.0 0.00 0.02 0.02 73 1015.6
20191020180604 90 160 5.0 7.0 0.00 0.02 0.02 69 1015.6
20191020180104 89 136 5.0 7.0 0.00 0.02 0.02 71 1015.6
20191020175604 89 270 5.0 5.0 0.00 0.02 0.02 73 1015.6
20191020175106 88 191 6.0 8.0 0.00 0.02 0.02 73 1015.7
20191020174605 87 285 2.0 5.0 0.00 0.02 0.02 77 1015.7
20191020174104 85 225 4.0 6.0 0.00 0.02 0.02 82 1015.8
20191020173605 85 232 6.0 7.0 0.00 0.02 0.02 80 1015.8
20191020173105 85 202 5.0 7.0 0.00 0.02 0.02 81 1015.8
20191020172605 84 236 5.0 6.0 0.00 0.02 0.02 82 1016.1
20191020172104 85 228 6.0 9.0 0.00 0.02 0.02 81 1016.1
20191020171607 87 187 6.0 8.0 0.00 0.02 0.02 77 1016.2
20191020171104 89 218 6.0 7.0 0.00 0.02 0.02 75 1016.2
20191020170605 86 215 5.0 8.0 0.00 0.02 0.02 80 1016.2
20191020170105 87 212 5.0 10.0 0.00 0.02 0.02 80 1016.3
20191020165605 87 202 5.0 8.0 0.00 0.02 0.02 79 1016.3
20191020165105 86 202 4.0 6.0 0.00 0.02 0.02 82 1016.3
20191020164605 86 247 6.0 9.0 0.00 0.02 0.02 80 1016.3
20191020164104 86 233 5.0 8.0 0.00 0.02 0.02 81 1016.3
20191020163604 87 209 5.0 8.0 0.00 0.02 0.02 80 1016.3
20191020163105 87 162 3.0 5.0 0.00 0.02 0.02 81 1016.3
20191020162605 86 204 3.0 5.0 0.00 0.02 0.02 83 1016.5
20191020162104 85 210 3.0 5.0 0.00 0.02 0.02 84 1016.5
20191020161612 84 179 3.0 5.0 0.00 0.02 0.02 87 1016.5
20191020161104 84 45 3.0 5.0 0.00 0.02 0.02 85 1016.5
20191020160605 84 195 3.0 5.0 0.00 0.02 0.02 84 1016.5
20191020160105 85 176 4.0 7.0 0.00 0.02 0.02 84 1016.5
20191020155605 84 160 3.0 5.0 0.00 0.02 0.02 87 1016.5
20191020155104 83 214 6.0 7.0 0.00 0.02 0.02 87 1016.5
20191020154604 83 212 6.0 8.0 0.00 0.02 0.02 86 1016.5
20191020154105 84 195 6.0 8.0 0.00 0.02 0.02 86 1016.4
20191020153605 84 183 3.0 5.0 0.00 0.02 0.02 87 1016.3
20191020153104 84 168 4.0 9.0 0.00 0.02 0.02 87 1016.3
20191020152605 84 211 5.0 9.0 0.00 0.02 0.02 88 1016.5
20191020152104 82 225 4.0 7.0 0.00 0.02 0.02 92 1016.5
20191020151606 82 206 4.0 6.0 0.00 0.02 0.02 91 1016.5
20191020151105 82 156 5.0 8.0 0.00 0.02 0.02 92 1016.5
20191020150604 83 239 5.0 7.0 0.00 0.02 0.02 91 1016.5
20191020150105 83 238 5.0 7.0 0.00 0.02 0.02 92 1016.5
20191020145604 83 111 3.0 6.0 0.01 0.02 0.02 92 1016.5
20191020145104 83 213 3.0 5.0 0.01 0.02 0.02 93 1016.3
20191020144605 82 206 3.0 5.0 0.01 0.02 0.02 94 1016.3
20191020144105 81 238 2.0 5.0 0.01 0.02 0.02 95 1016.2
20191020143604 81 207 3.0 3.0 0.01 0.02 0.02 97 1016.2
20191020143105 80 241 3.0 5.0 0.01 0.02 0.02 98 1016.2
20191020142605 80 192 2.0 3.0 0.01 0.02 0.02 98 1016.1
20191020142105 80 196 3.0 3.0 0.01 0.02 0.02 98 1016.1
20191020141605 80 234 3.0 6.0 0.01 0.02 0.02 97 1016.0
20191020141104 80 121 3.0 5.0 0.01 0.02 0.02 98 1016.0
20191020140604 80 125 3.0 6.0 0.01 0.02 0.02 97 1016.0
20191020140105 79 154 2.0 5.0 0.01 0.02 0.02 99 1015.8
20191020135605 79 178 1.0 5.0 0.00 0.01 0.01 99 1015.8
20191020135104 78 176 3.0 5.0 0.00 0.01 0.01 99 1015.7
20191020134605 77 194 3.0 5.0 0.00 0.01 0.01 99 1015.7
20191020134105 77 155 2.0 5.0 0.00 0.01 0.01 99 1015.5
20191020133604 76 158 2.0 5.0 0.00 0.01 0.01 99 1015.5
20191020133104 76 179 2.0 3.0 0.00 0.01 0.01 99 1015.5
20191020132605 76 135 1.0 2.0 0.00 0.01 0.01 99 1015.3
20191020132104 75 112 2.0 3.0 0.00 0.01 0.01 99 1015.3
20191020131605 75 135 2.0 3.0 0.00 0.01 0.01 99 1015.3
20191020131105 74 101 0.0 3.0 0.00 0.01 0.01 99 1015.3
20191020130605 74 146 1.0 2.0 0.00 0.01 0.01 99 1015.3
20191020130105 74 140 2.0 2.0 0.00 0.01 0.01 99 1015.2
20191020125604 74 112 2.0 2.0 0.00 0.01 0.01 99 1015.2
20191020125105 74 168 1.0 3.0 0.00 0.01 0.01 99 1015.1
20191020124605 73 154 2.0 3.0 0.00 0.01 0.01 99 1015.1
20191020124105 73 170 2.0 3.0 0.00 0.01 0.01 99 1015.1
20191020123604 73 156 2.0 2.0 0.00 0.01 0.01 99 1015.1
20191020123105 73 145 1.0 2.0 0.00 0.01 0.01 99 1015.1
20191020122605 73 142 0.0 2.0 0.01 0.01 0.01 99 1015.1
20191020122105 73 135 1.0 2.0 0.01 0.01 0.01 99 1015.1
20191020121605 73 139 1.0 1.0 0.01 0.01 0.01 99 1015.1
20191020121105 73 196 2.0 2.0 0.01 0.01 0.01 99 1015.1
20191020120604 73 138 2.0 2.0 0.01 0.01 0.01 99 1015.1
20191020120105 73 120 2.0 3.0 0.01 0.01 0.01 99 1015.1
20191020115605 73 156 2.0 2.0 0.01 0.01 0.01 99 1015.1
20191020115105 73 128 2.0 3.0 0.01 0.01 0.01 99 1015.0
20191020114604 73 161 3.0 3.0 0.01 0.01 0.01 99 1015.0
20191020114105 73 145 2.0 5.0 0.01 0.01 0.01 99 1014.9
20191020113606 73 116 2.0 3.0 0.01 0.01 0.01 99 1014.8
20191020113105 73 135 2.0 3.0 0.01 0.01 0.01 99 1014.8
20191020112605 73 201 2.0 5.0 0.00 0.00 0.00 99 1014.8
20191020112105 73 133 2.0 5.0 0.00 0.00 0.00 99 1014.8
20191020111605 73 148 2.0 5.0 0.00 0.00 0.00 99 1014.7
20191020111105 73 155 2.0 2.0 0.00 0.00 0.00 99 1014.7
20191020110605 73 154 2.0 3.0 0.00 0.00 0.00 99 1014.7
20191020110106 73 156 2.0 3.0 0.00 0.00 0.00 99 1014.7
20191020105605 73 159 2.0 2.0 0.00 0.00 0.00 99 1014.7
20191020105105 73 182 1.0 3.0 0.00 0.00 0.00 99 1014.5
20191020104605 73 205 2.0 3.0 0.00 0.00 0.00 99 1014.5
20191020104105 73 127 1.0 2.0 0.00 0.00 0.00 99 1014.4
20191020103604 73 143 2.0 3.0 0.00 0.00 0.00 99 1014.3
20191020103105 73 140 1.0 2.0 0.00 0.00 0.00 99 1014.3
20191020102605 73 164 3.0 3.0 0.00 0.00 0.00 99 1014.3
20191020102104 73 152 2.0 2.0 0.00 0.00 0.00 99 1014.3
20191020101605 73 136 2.0 2.0 0.00 0.00 0.00 99 1014.1
20191020101105 73 134 1.0 3.0 0.00 0.00 0.00 99 1014.1
20191020100605 73 146 2.0 3.0 0.00 0.00 0.00 99 1014.1
20191020100105 73 146 2.0 2.0 0.00 0.00 0.00 99 1014.0
20191020095605 73 148 2.0 3.0 0.00 0.00 0.00 99 1014.0
20191020095105 73 145 2.0 5.0 0.00 0.00 0.00 99 1013.8
20191020094614 73 134 1.0 2.0 0.00 0.00 0.00 99 1013.8
20191020094105 73 124 1.0 2.0 0.00 0.00 0.00 99 1013.7
20191020093605 73 111 1.0 2.0 0.00 0.00 0.00 99 1013.7
20191020093104 73 141 1.0 2.0 0.00 0.00 0.00 99 1013.7
20191020092605 73 151 2.0 5.0 0.00 0.00 0.00 99 1013.6
20191020092105 73 143 2.0 5.0 0.00 0.00 0.00 99 1013.6
20191020091605 73 131 2.0 3.0 0.00 0.00 0.00 99 1013.6
20191020091105 73 57 2.0 3.0 0.00 0.00 0.00 99 1013.6
20191020090604 73 230 2.0 5.0 0.00 0.00 0.00 99 1013.6
20191020090106 72 143 2.0 3.0 0.00 0.00 0.00 99 1013.6
20191020085605 72 131 2.0 2.0 0.00 0.00 0.00 99 1013.6
20191020085105 72 136 2.0 3.0 0.00 0.00 0.00 99 1013.6
20191020084615 72 143 1.0 3.0 0.00 0.00 0.00 99 1013.6
20191020084105 72 187 2.0 2.0 0.00 0.00 0.00 99 1013.6
20191020083605 72 177 2.0 3.0 0.00 0.00 0.00 99 1013.7
20191020083105 72 134 2.0 3.0 0.00 0.00 0.00 99 1013.7
20191020082605 72 164 2.0 3.0 0.00 0.00 0.00 99 1013.8
20191020082104 72 107 2.0 2.0 0.00 0.00 0.00 99 1013.8
20191020081605 72 138 2.0 3.0 0.00 0.00 0.00 99 1013.6
20191020081106 72 144 3.0 5.0 0.00 0.00 0.00 99 1013.6
20191020080605 72 144 2.0 3.0 0.00 0.00 0.00 99 1013.6
20191020080105 72 142 1.0 2.0 0.00 0.00 0.00 99 1013.7
20191020075605 72 173 1.0 3.0 0.00 0.00 0.00 99 1013.7
20191020075105 72 174 1.0 2.0 0.00 0.00 0.00 99 1013.8
20191020074606 72 194 1.0 1.0 0.00 0.00 0.00 99 1013.8
20191020074105 72 158 2.0 2.0 0.00 0.00 0.00 99 1013.8
20191020073604 71 164 1.0 3.0 0.00 0.00 0.00 99 1013.8
20191020073104 71 143 0.0 2.0 0.00 0.00 0.00 99 1013.8
20191020072604 71 170 2.0 2.0 0.00 0.00 0.00 99 1013.8
20191020072105 71 125 2.0 2.0 0.00 0.00 0.00 99 1013.8
20191020071605 71 138 1.0 2.0 0.00 0.00 0.00 99 1014.0
20191020071105 71 168 1.0 1.0 0.00 0.00 0.00 99 1014.0
20191020070604 71 177 1.0 2.0 0.00 0.00 0.00 99 1014.0
20191020070105 71 179 1.0 2.0 0.00 0.00 0.00 99 1013.8
20191020065605 71 187 1.0 3.0 0.00 0.00 0.00 99 1013.8
20191020065105 71 170 1.0 3.0 0.00 0.00 0.00 99 1013.8
20191020064605 71 166 2.0 3.0 0.00 0.00 0.00 99 1013.8
20191020064105 71 112 1.0 2.0 0.00 0.00 0.00 99 1013.8
20191020063614 71 158 1.0 2.0 0.00 0.00 0.00 99 1013.8
20191020063105 71 134 1.0 2.0 0.00 0.00 0.00 99 1013.8
20191020062605 71 136 1.0 2.0 0.00 0.00 0.00 99 1013.8
20191020062104 71 118 0.0 1.0 0.00 0.00 0.00 99 1013.8
20191020061605 71 178 0.0 1.0 0.00 0.00 0.00 99 1013.8
20191020061106 71 202 0.0 1.0 0.00 0.00 0.00 99 1013.8
20191020060604 71 183 0.0 0.0 0.00 0.00 0.00 99 1013.8
20191020060105 71 136 1.0 1.0 0.00 0.00 0.00 99 1013.8
20191020055558 71 145 0.0 0.0 0.00 0.00 0.00 99 1013.8
20191020055058 71 164 1.0 2.0 0.00 0.00 0.00 99 1014.0
20191020054557 71 140 1.0 2.0 0.00 0.00 0.00 99 1014.0
20191020054057 71 135 1.0 2.0 0.00 0.00 0.00 99 1014.0
20191020053558 71 168 0.0 1.0 0.00 0.00 0.00 99 1014.0
20191020053059 71 201 1.0 2.0 0.00 0.00 0.00 99 1014.0
20191020052557 71 158 1.0 2.0 0.00 0.00 0.00 99 1013.8
20191020052057 71 146 1.0 1.0 0.00 0.00 0.00 99 1013.8
20191020051558 71 142 1.0 2.0 0.00 0.00 0.00 99 1013.8
20191020051058 71 158 0.0 1.0 0.00 0.00 0.00 99 1013.8
20191020050558 71 133 1.0 1.0 0.00 0.00 0.00 99 1013.8
20191020050058 71 140 1.0 1.0 0.00 0.00 0.00 99 1013.8
20191020045558 71 156 0.0 1.0 0.00 0.00 0.00 99 1013.8
20191020045058 71 185 1.0 2.0 0.00 0.00 0.00 99 1013.8
20191020044558 71 166 0.0 1.0 0.00 0.00 0.00 99 1013.8
20191020044058 71 160 2.0 2.0 0.00 0.00 0.00 99 1013.8
20191020043558 71 164 1.0 2.0 0.00 0.00 0.00 99 1013.8
20191020043058 71 163 2.0 2.0 0.00 0.00 0.00 99 1013.8
20191020042559 71 158 2.0 3.0 0.00 0.00 0.00 99 1013.8
20191020042058 71 169 2.0 3.0 0.00 0.00 0.00 99 1013.8
20191020041601 71 175 2.0 2.0 0.00 0.00 0.00 99 1013.8
20191020041058 70 182 1.0 2.0 0.00 0.00 0.00 99 1013.8
20191020040558 70 158 2.0 2.0 0.00 0.00 0.00 99 1013.8
20191020040058 70 202 2.0 3.0 0.00 0.00 0.00 99 1013.8
20191020035558 70 170 2.0 2.0 0.00 0.00 0.00 99 1013.8
20191020035058 70 151 2.0 3.0 0.00 0.00 0.00 99 1013.8
20191020034558 70 135 2.0 2.0 0.00 0.00 0.00 99 1013.8
20191020034058 70 135 2.0 3.0 0.00 0.00 0.00 99 1013.8
20191020033557 70 155 2.0 2.0 0.00 0.00 0.00 99 1013.8
20191020033058 70 139 1.0 2.0 0.00 0.00 0.00 99 1013.8
20191020032557 70 147 1.0 2.0 0.00 0.00 0.00 99 1013.6
20191020032058 70 133 2.0 3.0 0.00 0.00 0.00 99 1013.6
20191020031600 70 145 1.0 2.0 0.00 0.00 0.00 99 1013.5
20191020031058 70 146 0.0 0.0 0.00 0.00 0.00 99 1013.5
20191020030558 70 175 0.0 1.0 0.00 0.00 0.00 99 1013.5
20191020030058 70 180 0.0 1.0 0.00 0.00 0.00 99 1013.5
20191020025558 70 163 0.0 1.0 0.00 0.00 0.00 99 1013.5
20191020025058 70 169 1.0 1.0 0.00 0.00 0.00 99 1013.6
20191020024558 71 167 1.0 1.0 0.00 0.00 0.00 99 1013.6
20191020024058 71 142 2.0 2.0 0.00 0.00 0.00 99 1013.5
20191020023557 71 123 2.0 3.0 0.00 0.00 0.00 99 1013.5
20191020023058 71 158 2.0 3.0 0.00 0.00 0.00 99 1013.5
20191020022558 71 136 2.0 3.0 0.00 0.00 0.00 99 1013.3
20191020022058 71 125 2.0 3.0 0.00 0.00 0.00 99 1013.3
20191020021600 71 129 2.0 2.0 0.00 0.00 0.00 99 1013.2
20191020021058 71 126 1.0 2.0 0.00 0.00 0.00 99 1013.2
20191020020557 71 140 1.0 1.0 0.00 0.00 0.00 99 1013.2
20191020020059 71 156 1.0 2.0 0.00 0.00 0.00 99 1013.2
20191020015558 71 165 1.0 1.0 0.00 0.00 0.00 99 1013.2
20191020015059 71 176 1.0 1.0 0.00 0.00 0.00 99 1013.0
20191020014559 71 180 0.0 0.0 0.00 0.00 0.00 99 1013.0
20191020014058 71 194 1.0 1.0 0.00 0.00 0.00 99 1013.0
20191020013558 72 188 0.0 1.0 0.00 0.00 0.00 99 1013.0
20191020013058 72 142 1.0 1.0 0.00 0.00 0.00 99 1013.0
20191020012558 72 166 0.0 2.0 0.00 0.00 0.00 99 1012.8
20191020012058 72 124 2.0 2.0 0.00 0.00 0.00 99 1012.8
20191020011559 72 166 1.0 2.0 0.00 0.00 0.00 99 1012.8
20191020011059 73 159 0.0 1.0 0.00 0.00 0.00 99 1012.8
20191020010558 73 192 1.0 2.0 0.00 0.00 0.00 98 1012.8
20191020010058 73 121 2.0 2.0 0.00 0.00 0.00 98 1012.7
20191020005558 73 203 0.0 2.0 0.00 0.00 0.00 97 1012.7
20191020005059 73 237 1.0 3.0 0.00 0.00 0.00 97 1012.7
20191020004558 74 131 2.0 2.0 0.00 0.00 0.00 96 1012.7
20191020004058 74 169 2.0 2.0 0.00 0.00 0.00 95 1012.6
20191020003557 74 160 2.0 3.0 0.00 0.00 0.00 95 1012.5
20191020003058 74 214 2.0 2.0 0.00 0.00 0.00 94 1012.5
20191020002558 74 198 1.0 1.0 0.00 0.00 0.00 94 1012.3
20191020002058 74 168 1.0 1.0 0.00 0.00 0.00 93 1012.3
20191020001559 75 127 2.0 2.0 0.00 0.00 0.00 93 1012.3
20191020001058 75 180 0.0 1.0 0.00 0.00 0.00 92 1012.3
20191020000558 75 200 1.0 2.0 0.00 0.00 0.00 91 1012.3
20191020000058 76 190 1.0 2.0 0.00 0.00 0.00 89 1012.1
20191019235558 76 160 0.0 0.0 0.00 0.00 0.00 88 1012.1
20191019235109 77 202 0.0 1.0 0.00 0.00 0.00 86 1012.1
20191019234558 77 205 1.0 3.0 0.00 0.00 0.00 85 1012.1
20191019234059 78 228 2.0 3.0 0.00 0.00 0.00 83 1011.9
20191019233558 78 196 3.0 3.0 0.00 0.00 0.00 81 1011.8
20191019233058 80 213 2.0 5.0 0.00 0.00 0.00 79 1011.8
20191019232558 81 224 3.0 5.0 0.00 0.00 0.00 77 1011.8
20191019232058 82 235 3.0 6.0 0.00 0.00 0.00 74 1011.8
20191019231600 83 212 2.0 2.0 0.00 0.00 0.00 72 1011.6
20191019231058 83 270 2.0 2.0 0.00 0.00 0.00 70 1011.6
20191019230558 84 292 2.0 3.0 0.00 0.00 0.00 70 1011.6
20191019230059 84 292 2.0 3.0 0.00 0.00 0.00 70 1011.6
20191019225559 84 292 3.0 3.0 0.00 0.00 0.00 68 1011.6
20191019225058 84 279 4.0 5.0 0.00 0.00 0.00 67 1011.5
20191019224559 84 292 5.0 6.0 0.00 0.00 0.00 67 1011.5
20191019224059 84 271 6.0 7.0 0.00 0.00 0.00 67 1011.4
20191019223557 85 288 5.0 6.0 0.00 0.00 0.00 65 1011.3
20191019223058 86 315 5.0 6.0 0.00 0.00 0.00 63 1011.3
20191019222558 87 315 5.0 6.0 0.00 0.00 0.00 61 1011.3